Brookpark, Ohio
Current Conditions -  °F | °C
As of 9:51 PM on Wednesday 26 Nov 2014 (Local Time) from KCLE Reporting Station
Broken Clouds Broken Clouds  
Wind Chill: 26°   Ceiling: 4900
Heat Index: 32°   Visibility: 9mi
Dew Point: 27°   Wind: 7mph
Humidity: 82%   Direction: 200°SSW
Pressure: 30.05"   Gusts: NA
Location:  41.3979°N, 81.8118°W
Report Text: KCLE 270251Z 20006KT 9SM BKN049 00/M03 A3005 RMK AO2 SLP182 T00001028 56006 $
Loading
Personal Weather Stations






























Interactive Weather Map New forecast layout! Learn more

10-Day Weather Forecast

Advertisements
Track Severe Weather on mobile